Latest Weather Observations for Lord Howe Island Windy Point

IDN60801

Issued at 9:32 pm EST Tuesday 26 May 2015 (issued every 30 minutes, with the page automatically refreshed every 10 minutes)

About weather observations | Map of weather stations | Latest weather observations for NSW | Other Formats
Station Details ID: 200715 Name: LORD HOWE ISLAND WINDY POINT Lat: -31.54 Lon: 159.07 Height: 4.0 m
Data from the previous 72 hours. | See also: Recent months for locations in New South Wales
Date/Time
EST
Temp
°C
App
Temp
°C
Dew
Point
Rel
Hum
%
Delta-T
°C
Wind Press
QNH
hPa
Press
MSL
hPa
Rain
since 9 am
mm
Dir
 
Spd
km/h
Gust
km/h
Spd
kts
Gust
kts
26/09:30pm - - - - - SE 9 17 5 9 - - -
26/09:00pm - - - - - SSW 17 26 9 14 - - -
26/08:30pm - - - - - SE 7 13 4 7 - - -
26/08:00pm - - - - - S 13 24 7 13 - - -
26/07:30pm - - - - - WSW 24 28 13 15 - - -
26/07:00pm - - - - - WSW 22 28 12 15 - - -
26/06:30pm - - - - - SW 26 33 14 18 - - -
26/06:00pm - - - - - S 9 28 5 15 - - -
26/05:30pm - - - - - SW 26 30 14 16 - - -
26/05:12pm - - - - - WSW 20 35 11 19 - - -
26/05:00pm - - - - - S 6 13 3 7 - - -
26/04:30pm - - - - - SW 20 35 11 19 - - -
26/04:00pm - - - - - SW 7 11 4 6 - - -
26/03:30pm - - - - - CALM 0 0 0 0 - - -
26/03:00pm - - - - - SSE 9 17 5 9 - - -
26/02:30pm - - - - - SSE 6 9 3 5 - - -
26/02:00pm - - - - - SSW 22 30 12 16 - - -
26/01:30pm - - - - - NNW 13 22 7 12 - - -
26/01:00pm - - - - - NNW 9 17 5 9 - - -
26/12:30pm - - - - - NW 13 19 7 10 - - -
26/12:00pm - - - - - NNE 9 17 5 9 - - -
26/11:30am - - - - - SSE 7 11 4 6 - - -
26/11:00am - - - - - NW 7 11 4 6 - - -
26/10:30am - - - - - NW 15 28 8 15 - - -
26/10:00am - - - - - WNW 17 24 9 13 - - -
26/09:30am - - - - - WNW 15 22 8 12 - - -
26/09:00am - - - - - E 7 13 4 7 - - -
26/08:30am - - - - - NNE 9 15 5 8 - - -
26/08:00am - - - - - NNE 7 11 4 6 - - -
26/07:30am - - - - - NE 6 11 3 6 - - -
26/07:00am - - - - - NE 7 11 4 6 - - -
26/06:30am - - - - - ENE 13 17 7 9 - - -
26/06:00am - - - - - ENE 13 15 7 8 - - -
26/05:30am - - - - - CALM 0 0 0 0 - - -
26/05:00am - - - - - ENE 2 7 1 4 - - -
26/04:30am - - - - - CALM 0 6 0 3 - - -
26/04:00am - - - - - CALM 0 0 0 0 - - -
26/03:30am - - - - - ENE 4 7 2 4 - - -
26/03:00am - - - - - ENE 6 7 3 4 - - -
26/02:30am - - - - - ENE 7 9 4 5 - - -
26/02:00am - - - - - E 6 9 3 5 - - -
26/01:30am - - - - - ESE 9 13 5 7 - - -
26/01:00am - - - - - E 9 13 5 7 - - -
26/12:30am - - - - - ESE 13 15 7 8 - - -
26/12:00am - - - - - ESE 9 17 5 9 - - -
 
Date/Time
EST
Temp
°C
App
Temp
°C
Dew
Point
Rel
Hum
%
Delta-T
°C
Wind Press
QNH
hPa
Press
MSL
hPa
Rain
since 9 am
mm
Dir
 
Spd
km/h
Gust
km/h
Spd
kts
Gust
kts
25/11:30pm - - - - - SE 9 13 5 7 - - -
25/11:00pm - - - - - ESE 11 13 6 7 - - -
25/10:30pm - - - - - ESE 7 9 4 5 - - -
25/10:00pm - - - - - ESE 4 7 2 4 - - -
25/09:30pm - - - - - SE 7 13 4 7 - - -
25/09:00pm - - - - - ESE 9 15 5 8 - - -
25/08:30pm - - - - - SE 7 11 4 6 - - -
25/08:00pm - - - - - E 2 6 1 3 - - -
25/07:30pm - - - - - SSE 7 15 4 8 - - -
25/07:00pm - - - - - SE 13 22 7 12 - - -
25/06:30pm - - - - - SE 4 9 2 5 - - -
25/06:00pm - - - - - NE 2 7 1 4 - - -
25/05:30pm - - - - - SE 6 9 3 5 - - -
25/05:00pm - - - - - ESE 17 30 9 16 - - -
25/04:30pm - - - - - SE 6 9 3 5 - - -
25/04:00pm - - - - - SSE 9 13 5 7 - - -
25/03:30pm - - - - - SE 9 13 5 7 - - -
25/03:00pm - - - - - ESE 15 24 8 13 - - -
25/02:30pm - - - - - ESE 19 26 10 14 - - -
25/02:00pm - - - - - ESE 19 26 10 14 - - -
25/01:30pm - - - - - E 17 26 9 14 - - -
25/01:00pm - - - - - SSW 11 26 6 14 - - -
25/12:30pm - - - - - SSW 11 19 6 10 - - -
25/12:00pm - - - - - S 13 24 7 13 - - -
25/11:30am - - - - - SW 17 35 9 19 - - -
25/11:00am - - - - - SSW 15 24 8 13 - - -
25/10:30am - - - - - S 19 30 10 16 - - -
25/10:00am - - - - - S 11 22 6 12 - - -
25/09:30am - - - - - SSW 11 35 6 19 - - -
25/09:00am - - - - - SSE 17 30 9 16 - - -
25/08:30am - - - - - SSW 19 33 10 18 - - -
25/08:00am - - - - - SSW 20 33 11 18 - - -
25/07:30am - - - - - S 20 35 11 19 - - -
25/07:00am - - - - - SE 13 20 7 11 - - -
25/06:30am - - - - - SSE 17 28 9 15 - - -
25/06:00am - - - - - SSE 19 26 10 14 - - -
25/05:30am - - - - - S 22 43 12 23 - - -
25/05:27am - - - - - S 19 43 10 23 - - -
25/05:00am - - - - - SSE 13 24 7 13 - - -
25/04:30am - - - - - S 28 39 15 21 - - -
25/04:00am - - - - - SE 13 26 7 14 - - -
25/03:30am - - - - - SSE 13 20 7 11 - - -
25/03:00am - - - - - SSE 17 32 9 17 - - -
25/02:30am - - - - - SSE 13 20 7 11 - - -
25/02:01am - - - - - S 28 46 15 25 - - -
25/02:00am - - - - - S 26 43 14 23 - - -
25/01:30am - - - - - SSE 19 32 10 17 - - -
25/01:00am - - - - - SSE 17 33 9 18 - - -
25/12:30am - - - - - SSE 17 26 9 14 - - -
25/12:00am - - - - - SSE 19 30 10 16 - - -
 
Date/Time
EST
Temp
°C
App
Temp
°C
Dew
Point
Rel
Hum
%
Delta-T
°C
Wind Press
QNH
hPa
Press
MSL
hPa
Rain
since 9 am
mm
Dir
 
Spd
km/h
Gust
km/h
Spd
kts
Gust
kts
24/11:30pm - - - - - SE 17 28 9 15 - - -
24/11:00pm - - - - - SSE 20 28 11 15 - - -
24/10:30pm - - - - - SSW 33 44 18 24 - - -
24/10:18pm - - - - - SW 32 43 17 23 - - -
24/10:00pm - - - - - SSE 17 24 9 13 - - -
24/09:30pm - - - - - SE 9 19 5 10 - - -
24/09:00pm - - - - - SSE 19 32 10 17 - - -
24/08:30pm - - - - - S 24 32 13 17 - - -
24/08:17pm - - - - - SSW 28 35 15 19 - - -
24/08:00pm - - - - - SSW 37 48 20 26 - - -
24/07:30pm - - - - - S 28 41 15 22 - - -
24/07:00pm - - - - - S 28 35 15 19 - - -
24/06:30pm - - - - - SSW 26 35 14 19 - - -
24/06:00pm - - - - - SSE 15 28 8 15 - - -
24/05:30pm - - - - - ESE 6 17 3 9 - - -
24/05:00pm - - - - - SSW 20 30 11 16 - - -
24/04:30pm - - - - - SSW 24 32 13 17 - - -
24/04:00pm - - - - - SSW 28 39 15 21 - - -
24/03:30pm - - - - - SSW 26 32 14 17 - - -
24/03:00pm - - - - - SSW 32 46 17 25 - - -
24/02:46pm - - - - - SSW 30 48 16 26 - - -
24/02:30pm - - - - - SSW 26 33 14 18 - - -
24/02:00pm - - - - - SSW 28 39 15 21 - - -
24/01:30pm - - - - - S 26 35 14 19 - - -
24/01:00pm - - - - - S 22 35 12 19 - - -
24/12:30pm - - - - - S 20 35 11 19 - - -
24/12:00pm - - - - - S 26 37 14 20 - - -
24/11:30am - - - - - S 28 39 15 21 - - -
24/11:00am - - - - - SSE 24 39 13 21 - - -
24/10:30am - - - - - SE 15 26 8 14 - - -
24/10:12am - - - - - SSE 19 28 10 15 - - -
24/10:00am - - - - - SSW 37 57 20 31 - - -
24/09:56am - - - - - S 33 57 18 31 - - -
24/09:30am - - - - - SSW 26 33 14 18 - - -
24/09:00am - - - - - SSW 33 44 18 24 - - -
24/08:30am - - - - - S 30 39 16 21 - - -
24/08:00am - - - - - S 28 35 15 19 - - -
24/07:30am - - - - - S 30 41 16 22 - - -
24/07:00am - - - - - S 26 35 14 19 - - -
24/06:30am - - - - - S 26 39 14 21 - - -
24/06:22am - - - - - S 28 46 15 25 - - -
24/06:00am - - - - - S 28 44 15 24 - - -
24/05:30am - - - - - SSW 32 43 17 23 - - -
24/05:00am - - - - - SSW 33 39 18 21 - - -
24/04:30am - - - - - SSW 28 46 15 25 - - -
24/04:00am - - - - - S 26 37 14 20 - - -
24/03:30am - - - - - S 26 37 14 20 - - -
24/03:00am - - - - - S 32 44 17 24 - - -
24/02:30am - - - - - S 32 41 17 22 - - -
24/02:00am - - - - - S 30 43 16 23 - - -
24/01:43am - - - - - S 32 50 17 27 - - -
24/01:30am - - - - - S 30 46 16 25 - - -
24/01:10am - - - - - S 32 50 17 27 - - -
24/01:00am - - - - - S 32 41 17 22 - - -
24/12:30am - - - - - SSE 28 43 15 23 - - -
24/12:13am - - - - - S 28 46 15 25 - - -
24/12:00am - - - - - S 22 35 12 19 - - -
 
Date/Time
EST
Temp
°C
App
Temp
°C
Dew
Point
Rel
Hum
%
Delta-T
°C
Wind Press
QNH
hPa
Press
MSL
hPa
Rain
since 9 am
mm
Dir
 
Spd
km/h
Gust
km/h
Spd
kts
Gust
kts
23/11:56pm - - - - - S 28 46 15 25 - - -
23/11:30pm - - - - - SW 32 43 17 23 - - -
23/11:11pm - - - - - SSW 30 48 16 26 - - -
23/11:00pm - - - - - S 24 32 13 17 - - -
23/10:30pm - - - - - S 19 35 10 19 - - -
23/10:06pm - - - - - S 35 54 19 29 - - -
23/10:00pm - - - - - SSW 41 54 22 29 - - -
23/09:54pm - - - - - SSW 30 54 16 29 - - -
23/09:53pm - - - - - SSW 28 46 15 25 - - -

Other Formats:

Comma delimited format used in spreadsheet applications
http://www.bom.gov.au/fwo/IDN60801/IDN60801.95995.axf

JavaScript Object Notation format (JSON) in row-major order
http://www.bom.gov.au/fwo/IDN60801/IDN60801.95995.json